Scotia, South Carolina
Current Conditions -  °F | °C
As of 5:55 PM on Saturday 20 Dec 2014 (Local Time) from KJYL Reporting Station
Overcast Overcast  
Wind Chill: 53°   Ceiling: 1500
Heat Index: 53°   Visibility: 10mi
Dew Point: 52°   Wind: 5mph
Humidity: 97%   Direction: 80°E
Pressure: 30.18"   Gusts: NA
Location:  32.68°N, 81.24°W
Report Text: KJYL 202255Z AUTO 08004KT 10SM SCT005 OVC015 12/11 A3018 RMK AO2 T01150111
Loading
Personal Weather Stations






























Interactive Weather Map New forecast layout! Learn more

10-Day Weather Forecast

Advertisements
Track Severe Weather on mobile